Time;durP1;ratioP1;P1;durP2;ratioP2;P2;SDS_P1;SDS_P2;PMS_P1;PMS_P2;Temp;Humidity;BMP_temperature;BMP_pressure;BME280_temperature;BME280_humidity;BME280_pressure;Samples;Min_cycle;Max_cycle;Signal;HPM_P1;HPM_P2
2023/01/04 00:01:08;;;;;;;2.77;2.50;;;9.60;99.90;;;;;;5047794;28;20429;-63
2023/01/04 00:03:34;;;;;;;5.50;2.83;;;9.50;99.90;;;;;;5043900;28;20420;-63
2023/01/04 00:06:02;;;;;;;5.93;3.33;;;9.40;99.90;;;;;;5049225;28;21667;-64
2023/01/04 00:08:28;;;;;;;3.40;2.93;;;9.50;99.90;;;;;;5047083;28;20243;-64
2023/01/04 00:11:06;;;;;;;2.60;2.50;;;9.40;99.90;;;;;;5050269;28;20490;-63
2023/01/04 00:13:33;;;;;;;3.73;3.10;;;9.50;99.90;;;;;;5046598;28;20446;-64
2023/01/04 00:16:03;;;;;;;3.97;2.70;;;9.50;99.90;;;;;;5051413;28;20416;-64
2023/01/04 00:18:30;;;;;;;3.23;2.80;;;9.50;99.90;;;;;;5044029;28;20814;-64
2023/01/04 00:21:09;;;;;;;3.60;2.83;;;9.40;99.90;;;;;;5051426;28;20412;-64
2023/01/04 00:23:39;;;;;;;2.97;2.67;;;9.50;99.90;;;;;;5049639;28;20426;-64
2023/01/04 00:26:10;;;;;;;4.20;2.97;;;9.50;99.90;;;;;;5049855;28;20521;-66
2023/01/04 00:28:37;;;;;;;6.37;2.93;;;9.60;99.90;;;;;;5045498;28;20888;-63
2023/01/04 00:31:05;;;;;;;4.90;3.23;;;9.50;99.90;;;;;;5051108;28;20785;-65
2023/01/04 00:33:31;;;;;;;3.33;3.00;;;9.50;99.90;;;;;;5048578;28;20860;-64
2023/01/04 00:36:03;;;;;;;2.97;2.77;;;9.50;99.90;;;;;;5050991;28;20446;-67
2023/01/04 00:38:28;;;;;;;4.40;2.70;;;9.50;99.90;;;;;;5049903;28;20400;-65
2023/01/04 00:40:54;;;;;;;3.43;2.83;;;9.50;99.90;;;;;;5049539;28;20555;-65
2023/01/04 00:43:20;;;;;;;3.77;2.50;;;9.40;99.90;;;;;;5050492;28;20221;-65
2023/01/04 00:45:45;;;;;;;3.07;2.40;;;9.40;99.90;;;;;;5050344;28;20295;-65
2023/01/04 00:48:11;;;;;;;3.60;2.90;;;9.50;99.90;;;;;;5050354;28;20180;-65
2023/01/04 00:50:37;;;;;;;2.40;2.30;;;9.50;99.90;;;;;;5049416;28;20606;-64
2023/01/04 00:53:02;;;;;;;3.63;2.50;;;9.50;99.90;;;;;;5033778;28;20260;-63
2023/01/04 00:55:29;;;;;;;3.97;3.00;;;9.40;99.90;;;;;;5050907;28;20173;-64
2023/01/04 00:57:55;;;;;;;3.37;2.53;;;9.50;99.90;;;;;;5049706;28;20181;-64
2023/01/04 01:00:22;;;;;;;8.60;2.50;;;9.60;99.90;;;;;;5051243;28;20485;-64
2023/01/04 01:02:48;;;;;;;2.27;2.17;;;9.80;99.90;;;;;;5050674;28;20252;-64
2023/01/04 01:05:13;;;;;;;3.53;2.27;;;9.90;99.90;;;;;;5051462;28;20546;-64
2023/01/04 01:07:39;;;;;;;2.30;2.20;;;9.90;99.90;;;;;;5050078;28;20186;-66
2023/01/04 01:10:05;;;;;;;5.03;2.33;;;9.90;99.90;;;;;;5055627;28;20260;-64
2023/01/04 01:12:31;;;;;;;2.37;2.27;;;9.80;99.90;;;;;;5054742;28;20177;-65
2023/01/04 01:14:56;;;;;;;2.73;2.27;;;10.00;99.90;;;;;;5053942;28;20419;-64
2023/01/04 01:17:22;;;;;;;5.77;2.40;;;10.00;99.90;;;;;;5054418;28;20257;-65
2023/01/04 01:19:48;;;;;;;2.50;2.30;;;10.00;99.90;;;;;;5055671;28;20186;-64
2023/01/04 01:22:14;;;;;;;3.10;2.43;;;10.00;99.90;;;;;;5056264;28;20176;-64
2023/01/04 01:24:39;;;;;;;5.70;2.33;;;9.90;99.90;;;;;;5055482;28;20181;-64
2023/01/04 01:27:05;;;;;;;2.70;2.50;;;10.00;99.90;;;;;;5054595;28;20218;-64
2023/01/04 01:29:31;;;;;;;3.77;2.80;;;10.10;99.90;;;;;;5055237;28;20183;-64
2023/01/04 01:31:57;;;;;;;2.83;2.30;;;10.20;99.90;;;;;;5054007;28;20179;-64
2023/01/04 01:34:22;;;;;;;2.63;2.43;;;10.10;99.90;;;;;;5055942;28;20218;-64
2023/01/04 01:36:48;;;;;;;2.90;2.53;;;10.20;99.90;;;;;;5053492;28;20281;-64
2023/01/04 01:39:14;;;;;;;2.90;2.60;;;10.20;99.90;;;;;;5055760;28;20232;-64
2023/01/04 01:41:40;;;;;;;3.90;2.43;;;10.20;99.90;;;;;;5055124;28;20751;-64
2023/01/04 01:44:11;;;;;;;3.90;3.00;;;10.20;99.90;;;;;;5055780;28;20183;-64
2023/01/04 01:46:49;;;;;;;2.90;2.70;;;10.10;99.90;;;;;;5053007;28;20475;-64
2023/01/04 01:49:26;;;;;;;2.80;2.53;;;9.90;99.90;;;;;;5055374;28;20419;-64
2023/01/04 01:51:58;;;;;;;3.00;2.80;;;9.90;99.90;;;;;;5055937;28;20906;-64
2023/01/04 01:54:45;;;;;;;3.20;2.80;;;9.90;99.90;;;;;;5055126;28;20892;-64
2023/01/04 01:57:20;;;;;;;3.07;2.87;;;10.00;99.90;;;;;;5054346;28;20940;-64
2023/01/04 01:59:48;;;;;;;3.00;2.90;;;10.00;99.90;;;;;;5053504;28;20838;-64
2023/01/04 02:02:14;;;;;;;2.80;2.60;;;10.10;99.90;;;;;;5052014;28;20441;-64
2023/01/04 02:04:44;;;;;;;3.33;3.03;;;10.00;99.90;;;;;;5054023;28;20510;-64
2023/01/04 02:07:12;;;;;;;3.67;2.50;;;9.80;99.90;;;;;;5055485;28;20193;-64
2023/01/04 02:09:39;;;;;;;6.10;2.90;;;9.90;99.90;;;;;;5054492;28;20407;-64
2023/01/04 02:12:09;;;;;;;3.10;2.90;;;9.80;99.90;;;;;;5055287;28;20923;-64
2023/01/04 02:14:35;;;;;;;6.73;2.87;;;9.80;99.90;;;;;;5054590;28;20397;-64
2023/01/04 02:17:09;;;;;;;3.00;2.77;;;9.90;99.90;;;;;;5054310;28;20425;-64
2023/01/04 02:20:12;;;;;;;2.50;2.40;;;9.90;99.90;;;;;;5050091;28;20163;-64
2023/01/04 02:23:13;;;;;;;3.30;2.77;;;9.90;99.90;;;;;;5050140;28;20448;-64
2023/01/04 02:26:16;;;;;;;3.30;3.00;;;9.90;99.90;;;;;;5030313;28;20464;-64
2023/01/04 02:29:00;;;;;;;3.07;2.47;;;9.90;99.90;;;;;;5050912;28;20401;-64
2023/01/04 02:31:50;;;;;;;2.60;2.40;;;9.90;99.90;;;;;;5051977;28;20408;-69
2023/01/04 02:34:41;;;;;;;4.20;2.70;;;9.90;99.90;;;;;;5053027;28;20908;-64
2023/01/04 02:37:31;;;;;;;3.20;2.60;;;9.90;99.90;;;;;;5053673;28;20400;-64
2023/01/04 02:40:22;;;;;;;3.37;3.07;;;9.70;99.90;;;;;;5052162;28;20468;-64
2023/01/04 02:46:01;;;;;;;3.10;2.90;;;9.80;99.90;;;;;;5049633;28;20452;-64
2023/01/04 02:51:32;;;;;;;3.10;2.90;;;9.60;99.90;;;;;;5055169;28;20809;-64
2023/01/04 02:54:12;;;;;;;3.60;3.30;;;9.60;99.90;;;;;;5050797;28;20757;-64
2023/01/04 02:56:52;;;;;;;3.40;3.10;;;9.70;99.90;;;;;;5047670;28;20489;-64
2023/01/04 02:59:36;;;;;;;3.10;2.87;;;9.70;99.90;;;;;;5053076;28;20400;-64
2023/01/04 03:08:35;;;;;;;7.17;3.20;;;9.70;99.90;;;;;;5051842;28;20420;-65
2023/01/04 03:14:12;;;;;;;2.97;2.80;;;9.60;99.90;;;;;;5052400;28;20459;-64
2023/01/04 03:16:41;;;;;;;3.03;2.83;;;9.60;99.90;;;;;;5052532;28;20419;-65
2023/01/04 03:19:09;;;;;;;2.80;2.60;;;9.70;99.90;;;;;;5050922;28;20824;-64
2023/01/04 03:21:41;;;;;;;4.27;2.93;;;9.80;99.90;;;;;;5047981;28;20869;-64
2023/01/04 03:36:02;;;;;;;2.70;2.53;;;10.00;99.90;;;;;;5051763;28;20446;-64
2023/01/04 03:50:21;;;;;;;2.60;2.40;;;10.00;99.90;;;;;;5051123;28;20433;-64
2023/01/04 03:52:50;;;;;;;2.90;2.73;;;10.00;99.90;;;;;;5047557;28;20492;-64
2023/01/04 03:55:17;;;;;;;2.60;2.50;;;10.00;99.90;;;;;;5050507;28;20912;-64
2023/01/04 03:57:45;;;;;;;3.03;2.70;;;10.10;99.90;;;;;;5051109;28;20413;-65
2023/01/04 04:00:14;;;;;;;2.70;2.50;;;10.20;99.90;;;;;;5051718;28;20432;-64
2023/01/04 04:02:41;;;;;;;2.80;2.60;;;10.10;99.90;;;;;;5046027;28;20445;-64
2023/01/04 04:10:39;;;;;;;2.80;2.60;;;10.20;99.90;;;;;;5050568;28;20974;-65
2023/01/04 04:13:05;;;;;;;3.13;2.93;;;10.10;99.90;;;;;;5051657;28;20425;-64
2023/01/04 04:15:31;;;;;;;2.93;2.83;;;10.20;99.90;;;;;;5050828;28;20541;-69
2023/01/04 04:17:56;;;;;;;2.67;2.47;;;10.10;99.90;;;;;;5051354;28;20195;-66
2023/01/04 04:20:22;;;;;;;2.67;2.47;;;10.20;99.90;;;;;;5051590;28;20262;-65
2023/01/04 04:22:48;;;;;;;3.80;2.70;;;10.30;99.90;;;;;;5049906;28;20188;-66
2023/01/04 04:25:13;;;;;;;3.10;2.90;;;10.30;99.90;;;;;;5049145;28;20246;-65
2023/01/04 04:27:39;;;;;;;2.97;2.87;;;10.40;99.90;;;;;;5050020;28;20667;-64
2023/01/04 04:30:05;;;;;;;3.00;2.80;;;10.30;99.90;;;;;;5052324;28;20178;-64
2023/01/04 04:32:31;;;;;;;3.10;2.90;;;10.30;99.90;;;;;;5048542;28;20183;-70
2023/01/04 04:34:56;;;;;;;2.70;2.50;;;10.40;99.90;;;;;;5052575;28;20473;-65
2023/01/04 04:37:24;;;;;;;2.60;2.47;;;10.40;99.90;;;;;;5052229;28;20200;-64
2023/01/04 04:39:49;;;;;;;4.80;4.50;;;10.40;99.90;;;;;;5050980;28;20293;-65
2023/01/04 04:42:15;;;;;;;3.20;2.80;;;10.60;99.90;;;;;;5052110;28;20850;-64
2023/01/04 04:44:40;;;;;;;4.67;4.53;;;10.50;99.90;;;;;;5051391;28;20177;-64
2023/01/04 04:47:06;;;;;;;5.27;4.87;;;10.40;99.90;;;;;;5050699;28;20294;-64
2023/01/04 04:49:32;;;;;;;3.17;2.50;;;10.40;99.90;;;;;;5051877;28;20269;-65
2023/01/04 04:51:58;;;;;;;7.30;3.03;;;10.50;99.90;;;;;;5052670;28;20288;-64
2023/01/04 04:54:24;;;;;;;2.30;2.20;;;10.40;99.90;;;;;;5051420;28;20517;-64
2023/01/04 04:56:50;;;;;;;2.70;2.60;;;10.20;99.90;;;;;;5051824;28;20177;-65
2023/01/04 04:59:15;;;;;;;3.70;3.50;;;10.30;99.90;;;;;;5052102;28;20195;-64
2023/01/04 05:01:41;;;;;;;2.87;2.77;;;10.30;99.90;;;;;;5051012;28;20428;-65
2023/01/04 05:04:07;;;;;;;2.10;2.00;;;10.30;99.90;;;;;;5052122;28;20180;-64
2023/01/04 05:06:33;;;;;;;3.63;3.13;;;10.40;99.90;;;;;;5050788;28;20211;-65
2023/01/04 05:08:59;;;;;;;2.37;2.27;;;10.40;99.90;;;;;;5052213;28;20420;-64
2023/01/04 05:14:09;;;;;;;3.57;2.47;;;10.30;99.90;;;;;;5051713;28;20190;-64
2023/01/04 05:16:35;;;;;;;4.10;3.90;;;10.20;99.90;;;;;;5051612;28;20468;-65
2023/01/04 05:19:01;;;;;;;2.53;2.40;;;10.40;99.90;;;;;;5050928;28;20188;-64
2023/01/04 05:21:27;;;;;;;2.33;2.23;;;10.30;99.90;;;;;;5052173;28;20403;-64
2023/01/04 05:23:53;;;;;;;2.13;1.93;;;10.30;99.90;;;;;;5048636;28;20838;-65
2023/01/04 05:26:18;;;;;;;3.00;2.27;;;10.40;99.90;;;;;;5052060;28;20214;-65
2023/01/04 05:28:44;;;;;;;3.10;2.80;;;10.30;99.90;;;;;;5051280;28;20407;-65
2023/01/04 05:31:10;;;;;;;2.30;2.10;;;10.40;99.90;;;;;;5051154;28;20304;-64
2023/01/04 05:33:36;;;;;;;4.00;3.83;;;10.40;99.90;;;;;;5050178;28;20228;-64
2023/01/04 05:36:02;;;;;;;2.20;2.10;;;10.40;99.90;;;;;;5052181;28;20690;-64
2023/01/04 05:38:29;;;;;;;1.83;1.73;;;10.40;99.90;;;;;;5052114;28;20178;-64
2023/01/04 05:40:55;;;;;;;1.73;1.63;;;10.30;99.90;;;;;;5051475;28;20455;-64
2023/01/04 05:43:22;;;;;;;3.10;3.00;;;10.30;99.90;;;;;;5050820;28;20442;-64
2023/01/04 05:45:51;;;;;;;1.80;1.77;;;10.20;99.90;;;;;;5051023;28;20448;-64
2023/01/04 05:48:18;;;;;;;4.10;2.00;;;10.20;99.90;;;;;;5052234;28;20463;-64
2023/01/04 05:50:44;;;;;;;2.27;2.17;;;10.40;99.90;;;;;;5051376;28;20412;-64
2023/01/04 05:53:11;;;;;;;3.10;3.00;;;10.30;99.90;;;;;;5051432;28;20848;-64
2023/01/04 05:55:37;;;;;;;2.00;1.90;;;10.30;99.90;;;;;;5052948;28;20419;-65
2023/01/04 05:58:03;;;;;;;1.87;1.87;;;10.40;99.90;;;;;;5052169;28;20435;-64
2023/01/04 06:00:29;;;;;;;2.40;2.20;;;10.50;99.90;;;;;;5053244;28;20457;-64
2023/01/04 06:02:55;;;;;;;2.43;2.33;;;10.50;99.90;;;;;;5043468;28;20458;-64
2023/01/04 06:05:22;;;;;;;1.73;1.63;;;10.50;99.90;;;;;;5055578;28;20464;-64
2023/01/04 06:07:48;;;;;;;1.80;1.80;;;10.50;99.90;;;;;;5054647;28;20428;-64
2023/01/04 06:10:14;;;;;;;2.73;2.63;;;10.70;99.90;;;;;;5055249;28;20423;-64
2023/01/04 06:12:40;;;;;;;2.17;2.07;;;10.60;99.90;;;;;;5054683;28;20186;-64
2023/01/04 06:15:07;;;;;;;2.27;2.17;;;10.70;99.90;;;;;;5055282;28;20413;-65
2023/01/04 06:17:33;;;;;;;2.17;2.10;;;10.70;99.90;;;;;;5053827;28;20421;-64
2023/01/04 06:19:59;;;;;;;2.50;2.40;;;10.70;99.90;;;;;;5055259;28;20507;-64
2023/01/04 06:22:27;;;;;;;2.20;1.87;;;10.80;99.90;;;;;;5054038;28;20523;-65
2023/01/04 06:24:53;;;;;;;2.20;2.10;;;10.80;99.90;;;;;;5051357;28;20807;-65
2023/01/04 06:27:19;;;;;;;2.00;1.90;;;10.80;99.90;;;;;;5053455;28;20477;-64
2023/01/04 06:29:45;;;;;;;1.50;1.50;;;10.90;99.90;;;;;;5054210;28;20174;-64
2023/01/04 06:32:11;;;;;;;1.83;1.83;;;10.70;99.90;;;;;;5038646;28;20439;-64
2023/01/04 06:34:36;;;;;;;3.53;3.43;;;10.90;99.90;;;;;;5034271;28;20185;-65
2023/01/04 06:37:02;;;;;;;2.80;2.80;;;10.90;99.90;;;;;;5043881;28;20191;-64
2023/01/04 06:39:28;;;;;;;1.60;1.60;;;10.90;99.90;;;;;;5053080;28;20185;-65
2023/01/04 06:41:54;;;;;;;5.60;1.43;;;10.90;99.90;;;;;;5053912;28;20622;-64
2023/01/04 06:44:20;;;;;;;1.73;1.67;;;10.90;99.90;;;;;;5054626;28;20462;-64
2023/01/04 06:46:45;;;;;;;2.00;2.00;;;10.80;99.90;;;;;;5053836;28;20219;-64
2023/01/04 06:49:11;;;;;;;1.73;1.70;;;10.80;99.90;;;;;;5052081;28;20601;-64
2023/01/04 06:51:37;;;;;;;2.60;2.50;;;10.80;99.90;;;;;;5052957;28;20182;-65
2023/01/04 06:54:02;;;;;;;2.10;2.00;;;10.80;99.90;;;;;;5051496;28;20192;-64
2023/01/04 06:56:29;;;;;;;2.10;2.00;;;10.70;99.90;;;;;;5053661;28;20266;-65
2023/01/04 06:58:55;;;;;;;2.87;1.80;;;10.70;99.90;;;;;;5052841;28;20664;-65
2023/01/04 07:01:21;;;;;;;1.17;1.07;;;10.80;99.90;;;;;;5044071;28;20954;-65
2023/01/04 07:03:46;;;;;;;2.43;2.40;;;10.80;99.90;;;;;;5048424;28;20198;-65
2023/01/04 07:06:12;;;;;;;1.50;1.50;;;10.80;99.90;;;;;;5053123;28;20348;-64
2023/01/04 07:08:38;;;;;;;1.70;1.70;;;10.80;99.90;;;;;;5052570;28;20176;-65
2023/01/04 07:11:04;;;;;;;1.80;1.70;;;10.70;99.90;;;;;;5053386;28;20205;-64
2023/01/04 07:13:29;;;;;;;2.10;2.00;;;10.70;99.90;;;;;;5054232;28;20575;-64
2023/01/04 07:15:55;;;;;;;1.80;1.33;;;10.70;99.90;;;;;;5052160;28;20643;-64
2023/01/04 07:18:21;;;;;;;1.57;1.50;;;10.80;99.90;;;;;;5042459;28;20195;-65
2023/01/04 07:20:47;;;;;;;2.40;2.30;;;10.80;99.90;;;;;;5048627;28;20191;-66
2023/01/04 07:23:12;;;;;;;2.10;2.10;;;10.90;99.90;;;;;;5052591;28;20444;-65
2023/01/04 07:25:38;;;;;;;2.70;2.70;;;10.90;99.90;;;;;;5063901;28;20212;-69
2023/01/04 07:28:04;;;;;;;1.80;1.57;;;10.80;99.90;;;;;;5065504;28;20635;-64
2023/01/04 07:30:30;;;;;;;1.47;1.47;;;10.80;99.90;;;;;;5053322;28;20582;-65
2023/01/04 07:32:56;;;;;;;1.70;1.70;;;10.80;99.90;;;;;;5052709;28;21033;-65
2023/01/04 07:35:22;;;;;;;1.50;1.50;;;11.00;99.90;;;;;;5047884;28;20179;-65
2023/01/04 07:37:48;;;;;;;1.70;1.70;;;11.00;99.90;;;;;;5049775;28;20435;-65
2023/01/04 07:40:14;;;;;;;1.70;1.60;;;11.10;99.90;;;;;;5054211;28;20470;-66
2023/01/04 07:42:39;;;;;;;2.10;2.10;;;11.10;99.90;;;;;;5050010;28;20188;-64
2023/01/04 07:45:06;;;;;;;2.20;2.10;;;11.10;99.90;;;;;;5053225;28;20442;-64
2023/01/04 07:47:32;;;;;;;2.00;2.00;;;11.10;99.90;;;;;;5053098;28;20512;-64
2023/01/04 07:49:59;;;;;;;4.10;4.00;;;11.20;99.90;;;;;;5051970;28;20407;-65
2023/01/04 07:52:25;;;;;;;2.13;2.13;;;11.20;99.90;;;;;;5049530;28;20437;-64
2023/01/04 07:54:51;;;;;;;4.03;3.92;;;11.20;99.90;;;;;;5048825;28;20428;-65
2023/01/04 07:57:17;;;;;;;1.90;1.80;;;11.20;99.90;;;;;;5053157;28;20188;-65
2023/01/04 07:59:42;;;;;;;3.00;2.90;;;11.30;99.90;;;;;;5052266;28;20202;-65
2023/01/04 08:02:12;;;;;;;2.20;2.10;;;11.30;99.90;;;;;;5053054;28;20185;-64
2023/01/04 08:04:37;;;;;;;1.60;1.60;;;11.30;99.90;;;;;;5052334;28;20204;-68
2023/01/04 08:07:03;;;;;;;1.93;1.93;;;11.30;99.90;;;;;;5053059;28;20488;-64
2023/01/04 08:09:29;;;;;;;2.20;2.10;;;11.30;99.90;;;;;;5052790;28;20413;-64
2023/01/04 08:11:55;;;;;;;2.40;2.40;;;11.30;99.90;;;;;;5052388;28;20504;-66
2023/01/04 08:14:22;;;;;;;5.03;4.93;;;11.30;99.90;;;;;;5051521;28;20636;-64
2023/01/04 08:16:47;;;;;;;2.10;2.10;;;11.20;99.90;;;;;;5052081;28;20709;-65
2023/01/04 08:19:16;;;;;;;2.70;2.50;;;11.30;99.90;;;;;;5052567;28;20504;-65
2023/01/04 08:21:42;;;;;;;3.77;3.67;;;11.20;99.90;;;;;;5051829;28;20683;-65
2023/01/04 08:24:10;;;;;;;2.70;2.70;;;11.20;99.90;;;;;;5051563;28;20788;-65
2023/01/04 08:26:36;;;;;;;2.63;2.53;;;11.20;99.90;;;;;;5039048;28;20492;-64
2023/01/04 08:29:02;;;;;;;3.00;2.90;;;11.20;99.90;;;;;;5050507;28;20433;-65
2023/01/04 08:31:30;;;;;;;2.50;2.50;;;11.20;99.90;;;;;;5052894;28;20186;-65
2023/01/04 08:33:57;;;;;;;2.03;2.03;;;11.30;99.90;;;;;;5051466;28;20207;-67
2023/01/04 08:36:25;;;;;;;2.23;2.23;;;11.30;99.90;;;;;;5052527;28;20425;-65
2023/01/04 08:38:52;;;;;;;2.10;2.00;;;11.20;99.90;;;;;;5050256;28;20507;-68
2023/01/04 08:41:18;;;;;;;2.83;2.73;;;11.30;99.90;;;;;;5052430;28;20491;-68
2023/01/04 08:43:44;;;;;;;2.03;2.03;;;11.60;99.90;;;;;;5032822;28;20410;-68
2023/01/04 08:46:13;;;;;;;2.60;2.50;;;11.70;99.90;;;;;;5052391;28;20461;-68
2023/01/04 08:48:40;;;;;;;2.67;2.57;;;11.70;99.90;;;;;;5050451;28;20444;-72
2023/01/04 08:51:09;;;;;;;2.23;2.23;;;12.00;99.90;;;;;;5056353;28;20424;-68
2023/01/04 08:53:35;;;;;;;2.20;2.20;;;12.00;99.90;;;;;;5056736;28;20435;-68
2023/01/04 08:56:01;;;;;;;2.03;2.03;;;12.20;99.90;;;;;;5055338;28;20430;-68
2023/01/04 08:58:29;;;;;;;2.50;2.40;;;12.30;99.90;;;;;;5059489;28;20421;-68
2023/01/04 09:01:02;;;;;;;2.60;2.50;;;12.60;99.90;;;;;;5051814;28;20412;-68
2023/01/04 09:03:29;;;;;;;1.97;1.97;;;12.60;99.90;;;;;;5051870;28;20493;-68
2023/01/04 09:06:12;;;;;;;2.30;2.20;;;12.80;99.90;;;;;;5050826;28;20455;-68
2023/01/04 09:08:38;;;;;;;3.50;3.40;;;12.80;99.90;;;;;;5052197;28;20396;-68
2023/01/04 09:11:08;;;;;;;1.73;1.67;;;13.00;99.90;;;;;;5051500;28;20413;-68
2023/01/04 09:13:35;;;;;;;4.00;3.90;;;13.20;99.90;;;;;;5052254;28;20400;-68
2023/01/04 09:16:06;;;;;;;2.60;2.50;;;13.30;99.90;;;;;;5051674;28;20647;-68
2023/01/04 09:18:33;;;;;;;3.87;3.77;;;13.30;99.90;;;;;;5050263;28;20433;-68
2023/01/04 09:21:03;;;;;;;2.57;2.50;;;13.30;99.90;;;;;;5050840;28;20433;-69
2023/01/04 09:23:30;;;;;;;2.37;2.27;;;13.40;99.90;;;;;;5052173;28;20409;-67
2023/01/04 09:25:55;;;;;;;2.67;2.57;;;13.50;99.90;;;;;;5051158;28;20465;-67
2023/01/04 09:28:21;;;;;;;2.10;2.10;;;13.50;99.90;;;;;;5050137;28;20427;-66
2023/01/04 09:30:47;;;;;;;1.83;1.83;;;13.50;99.90;;;;;;5052650;28;20200;-67
2023/01/04 09:33:12;;;;;;;2.20;2.20;;;13.60;99.90;;;;;;5055792;28;20170;-67
2023/01/04 09:35:38;;;;;;;2.23;2.23;;;13.60;99.90;;;;;;5055963;28;20267;-66
2023/01/04 09:38:04;;;;;;;2.60;2.50;;;13.50;99.90;;;;;;5055319;28;20627;-66
2023/01/04 09:40:54;;;;;;;2.47;2.37;;;13.50;99.90;;;;;;5055671;28;20383;-66
2023/01/04 09:43:21;;;;;;;2.30;2.20;;;13.30;99.90;;;;;;5065498;28;20416;-66
2023/01/04 09:45:52;;;;;;;2.37;2.37;;;13.30;99.90;;;;;;5072391;28;20467;-66
2023/01/04 09:48:21;;;;;;;2.03;2.03;;;13.40;99.90;;;;;;5063201;28;20432;-66
2023/01/04 09:50:58;;;;;;;3.10;2.37;;;13.40;99.90;;;;;;5055050;28;20412;-66
2023/01/04 09:53:32;;;;;;;2.00;2.00;;;13.50;99.90;;;;;;5055450;28;20400;-66
2023/01/04 09:56:20;;;;;;;2.40;2.30;;;13.40;99.90;;;;;;5054813;28;20508;-66
2023/01/04 09:58:47;;;;;;;2.27;2.20;;;13.40;99.90;;;;;;5061749;28;20404;-66
2023/01/04 10:01:26;;;;;;;2.30;2.30;;;13.60;99.90;;;;;;5057945;28;20515;-66
2023/01/04 10:04:31;;;;;;;4.70;4.60;;;13.60;99.90;;;;;;5058287;28;20411;-66
2023/01/04 10:06:57;;;;;;;2.63;2.60;;;13.50;99.90;;;;;;5034934;28;20459;-66
2023/01/04 10:09:23;;;;;;;1.83;1.83;;;13.60;99.90;;;;;;5036556;28;20419;-67
2023/01/04 10:12:26;;;;;;;3.77;3.67;;;13.70;99.90;;;;;;5061340;28;20475;-66
2023/01/04 10:15:02;;;;;;;2.63;2.53;;;13.70;99.90;;;;;;5053660;28;20194;-66
2023/01/04 10:17:30;;;;;;;2.50;2.40;;;13.70;99.90;;;;;;5052030;28;20766;-66
2023/01/04 10:20:02;;;;;;;2.17;2.17;;;13.70;99.90;;;;;;5053757;28;20414;-66
2023/01/04 10:22:54;;;;;;;2.40;2.40;;;13.80;99.90;;;;;;5052463;28;20938;-64
2023/01/04 10:25:35;;;;;;;2.40;2.30;;;13.80;99.90;;;;;;5042326;28;20444;-64
2023/01/04 10:28:10;;;;;;;2.60;2.50;;;13.60;99.90;;;;;;5068564;28;20434;-64
2023/01/04 10:30:43;;;;;;;3.80;3.70;;;13.20;99.90;;;;;;5054474;28;20489;-64
2023/01/04 10:33:10;;;;;;;2.50;2.40;;;13.10;99.90;;;;;;5040032;28;20460;-63
2023/01/04 10:35:36;;;;;;;2.07;1.97;;;12.90;99.90;;;;;;5049424;28;20453;-64
2023/01/04 10:38:09;;;;;;;3.00;2.90;;;12.80;99.90;;;;;;5043655;28;20536;-64
2023/01/04 10:40:39;;;;;;;2.20;2.20;;;12.80;99.90;;;;;;5043111;28;20482;-63
2023/01/04 10:43:06;;;;;;;2.30;2.20;;;12.50;99.90;;;;;;5040901;28;20444;-67
2023/01/04 10:45:58;;;;;;;2.07;1.97;;;12.50;99.90;;;;;;5039438;28;20519;-67
2023/01/04 10:48:48;;;;;;;2.00;1.90;;;12.50;99.90;;;;;;5040047;28;20539;-64
2023/01/04 10:51:26;;;;;;;2.40;2.30;;;12.50;99.90;;;;;;5039252;28;20508;-64
2023/01/04 10:53:58;;;;;;;1.97;1.87;;;12.40;99.90;;;;;;5039486;28;20438;-64
2023/01/04 10:56:28;;;;;;;3.40;3.30;;;12.50;99.90;;;;;;5038633;28;20473;-63
2023/01/04 10:59:22;;;;;;;2.80;2.70;;;12.40;99.90;;;;;;5044629;28;20447;-64
2023/01/04 11:02:03;;;;;;;3.30;3.20;;;12.40;99.90;;;;;;5052282;28;20440;-69
2023/01/04 11:04:51;;;;;;;3.03;2.87;;;12.40;99.90;;;;;;5037689;28;20854;-63
2023/01/04 11:07:25;;;;;;;3.30;3.20;;;12.40;99.90;;;;;;5049221;28;21031;-64
2023/01/04 11:09:56;;;;;;;3.70;3.60;;;12.40;99.90;;;;;;5051107;28;20447;-69
2023/01/04 11:12:23;;;;;;;3.77;3.67;;;12.40;99.90;;;;;;5053870;28;20397;-63
2023/01/04 11:14:50;;;;;;;3.27;3.17;;;12.40;99.90;;;;;;5052664;28;20446;-69
2023/01/04 11:17:16;;;;;;;2.50;2.40;;;12.40;99.90;;;;;;5053225;28;20416;-63
2023/01/04 11:19:42;;;;;;;2.80;2.70;;;12.40;99.90;;;;;;5053605;28;20420;-63
2023/01/04 11:22:31;;;;;;;2.67;2.60;;;12.40;99.90;;;;;;5050774;28;21226;-63
2023/01/04 11:25:02;;;;;;;3.20;3.10;;;12.40;99.90;;;;;;5034724;28;20791;-63
2023/01/04 11:27:34;;;;;;;3.33;3.20;;;12.40;99.90;;;;;;5050181;28;20865;-67
2023/01/04 11:30:14;;;;;;;2.90;2.80;;;12.50;99.90;;;;;;5046858;28;20450;-64
2023/01/04 11:33:07;;;;;;;4.10;3.80;;;12.40;99.90;;;;;;5051102;28;20432;-65
2023/01/04 11:35:47;;;;;;;2.80;2.70;;;12.40;99.90;;;;;;5048757;28;20878;-65
2023/01/04 11:38:18;;;;;;;2.90;2.60;;;12.50;99.90;;;;;;5050526;28;20435;-64
2023/01/04 11:41:15;;;;;;;3.43;3.33;;;12.50;99.90;;;;;;5052487;28;20476;-67
2023/01/04 11:43:59;;;;;;;3.40;3.30;;;12.40;99.90;;;;;;5046868;28;20452;-64
2023/01/04 11:46:26;;;;;;;5.20;5.00;;;12.50;99.90;;;;;;5053562;28;20448;-65
2023/01/04 11:48:52;;;;;;;4.10;3.90;;;12.50;99.90;;;;;;5050595;28;20474;-65
2023/01/04 11:51:19;;;;;;;3.80;3.37;;;12.60;99.90;;;;;;5053349;28;20480;-65
2023/01/04 11:53:55;;;;;;;3.50;3.30;;;12.60;99.90;;;;;;5051282;28;20941;-64
2023/01/04 11:56:23;;;;;;;5.20;4.90;;;12.50;99.90;;;;;;5052473;28;20187;-65
2023/01/04 11:59:09;;;;;;;3.27;3.07;;;12.50;99.90;;;;;;5050463;28;20468;-64
2023/01/04 12:01:37;;;;;;;4.37;4.17;;;12.60;99.90;;;;;;5052785;28;20429;-64
2023/01/04 12:04:10;;;;;;;3.60;3.50;;;12.60;99.90;;;;;;5051890;28;20809;-65
2023/01/04 12:06:45;;;;;;;3.83;3.73;;;12.60;99.90;;;;;;5051015;28;20527;-67
2023/01/04 12:09:16;;;;;;;3.83;3.73;;;12.60;99.90;;;;;;5032642;28;20418;-64
2023/01/04 12:11:54;;;;;;;3.30;3.20;;;12.60;99.90;;;;;;5033115;28;20417;-65
2023/01/04 12:14:33;;;;;;;3.60;3.40;;;12.70;99.90;;;;;;5033061;28;20420;-64
2023/01/04 12:17:12;;;;;;;4.43;4.13;;;12.60;99.90;;;;;;5047756;28;20486;-65
2023/01/04 12:19:40;;;;;;;4.13;3.93;;;12.70;99.90;;;;;;5033053;28;20764;-65
2023/01/04 12:22:34;;;;;;;3.10;3.00;;;12.70;99.90;;;;;;5032088;28;20414;-65
2023/01/04 12:25:04;;;;;;;4.00;3.80;;;12.70;99.90;;;;;;5032155;28;20410;-64
2023/01/04 12:27:30;;;;;;;4.50;4.30;;;12.70;99.90;;;;;;5031787;28;20796;-65
2023/01/04 12:29:58;;;;;;;3.97;3.77;;;12.70;99.90;;;;;;5032380;28;20413;-65
2023/01/04 12:32:26;;;;;;;4.57;4.37;;;12.70;99.90;;;;;;5032904;28;20199;-64
2023/01/04 12:34:53;;;;;;;3.80;3.50;;;12.70;99.90;;;;;;5032262;28;20506;-68
2023/01/04 12:37:44;;;;;;;4.17;3.90;;;12.80;99.90;;;;;;5050406;28;20424;-65
2023/01/04 12:40:45;;;;;;;3.83;3.73;;;12.80;99.90;;;;;;5051189;28;20543;-65
2023/01/04 12:43:13;;;;;;;3.00;2.90;;;12.80;99.90;;;;;;5052101;28;20420;-65
2023/01/04 12:45:40;;;;;;;3.57;3.37;;;12.80;99.90;;;;;;5052380;28;20450;-65
2023/01/04 12:51:17;;;;;;;3.20;3.10;;;12.80;99.90;;;;;;5051768;28;20407;-65
2023/01/04 12:53:54;;;;;;;3.20;3.10;;;12.80;99.90;;;;;;5052809;28;20406;-65
2023/01/04 12:56:20;;;;;;;5.30;5.10;;;12.80;99.90;;;;;;5052613;28;20421;-65
2023/01/04 12:59:06;;;;;;;4.50;4.30;;;12.80;99.90;;;;;;5052493;28;20415;-65
2023/01/04 13:01:32;;;;;;;2.83;2.73;;;12.80;99.90;;;;;;5052475;28;20415;-63
2023/01/04 13:04:22;;;;;;;2.70;2.60;;;12.80;99.90;;;;;;5052772;28;20405;-63
2023/01/04 13:06:48;;;;;;;2.50;2.40;;;12.90;99.90;;;;;;5055293;28;20483;-64
2023/01/04 13:09:19;;;;;;;3.00;2.90;;;12.80;99.90;;;;;;5055810;28;20736;-64
2023/01/04 13:12:01;;;;;;;3.27;3.17;;;12.90;99.90;;;;;;5054374;28;20912;-64
2023/01/04 13:14:39;;;;;;;3.60;3.50;;;12.90;99.90;;;;;;5055827;28;20535;-64
2023/01/04 13:17:14;;;;;;;2.97;2.87;;;12.90;99.90;;;;;;5055938;28;20461;-64
2023/01/04 13:19:42;;;;;;;2.80;2.70;;;13.00;99.90;;;;;;5056410;28;20438;-65
2023/01/04 13:22:15;;;;;;;2.80;2.70;;;13.00;99.90;;;;;;5055685;28;20411;-64
2023/01/04 13:24:42;;;;;;;4.17;4.07;;;13.00;99.90;;;;;;5056263;28;20407;-64
2023/01/04 13:27:14;;;;;;;3.50;3.40;;;12.90;99.90;;;;;;5055284;28;20452;-65
2023/01/04 13:29:40;;;;;;;3.97;3.87;;;12.90;99.90;;;;;;5056293;28;20422;-65
2023/01/04 13:32:21;;;;;;;4.53;4.07;;;12.90;99.90;;;;;;5054099;28;20414;-65
2023/01/04 13:34:50;;;;;;;2.50;2.50;;;12.90;99.90;;;;;;5056504;28;20440;-65
2023/01/04 13:37:27;;;;;;;2.43;2.33;;;12.90;99.90;;;;;;5054411;28;21281;-65
2023/01/04 13:40:25;;;;;;;4.20;4.10;;;12.90;99.90;;;;;;5055679;28;20548;-65
2023/01/04 13:43:14;;;;;;;2.90;2.80;;;12.90;99.90;;;;;;5046506;28;20440;-65
2023/01/04 13:45:55;;;;;;;3.87;3.77;;;12.90;99.90;;;;;;5044928;28;20813;-65
2023/01/04 13:48:22;;;;;;;2.80;2.70;;;12.90;99.90;;;;;;5054729;28;21294;-65
2023/01/04 13:51:12;;;;;;;2.17;2.17;;;12.90;99.90;;;;;;5057308;28;20448;-65
2023/01/04 13:53:38;;;;;;;2.27;2.27;;;12.90;99.90;;;;;;5055454;28;20405;-65
2023/01/04 13:56:04;;;;;;;3.63;3.53;;;12.90;99.90;;;;;;5055008;28;20822;-65